Time;durP1;ratioP1;P1;durP2;ratioP2;P2;SDS_P1;SDS_P2;PMS_P1;PMS_P2;Temp;Humidity;BMP_temperature;BMP_pressure;BME280_temperature;BME280_humidity;BME280_pressure;Samples;Min_cycle;Max_cycle;Signal;HPM_P1;HPM_P2
2024/02/18 00:01:47;;;;;;;12.73;8.77;;;;;;;11.33;98.22;99810.56;5189092;22;21409;-85
2024/02/18 00:03:50;;;;;;;10.70;8.23;;;;;;;11.33;96.47;99810.56;5188529;22;21420;-83
2024/02/18 00:05:54;;;;;;;10.17;8.80;;;;;;;11.34;97.03;99812.28;5136857;23;20644;-84
2024/02/18 00:07:57;;;;;;;10.57;8.47;;;;;;;11.34;96.24;99812.28;5161610;23;20584;-83
2024/02/18 00:10:00;;;;;;;11.13;9.40;;;;;;;11.35;97.53;99811.34;5162526;23;20638;-84
2024/02/18 00:12:04;;;;;;;8.77;7.80;;;;;;;11.36;96.92;99815.66;5162365;23;20584;-84
2024/02/18 00:14:09;;;;;;;11.17;8.53;;;;;;;11.36;96.79;99815.66;5162840;23;20619;-83
2024/02/18 00:16:12;;;;;;;10.00;8.37;;;;;;;11.36;98.43;99807.81;5161871;23;20942;-83
2024/02/18 00:18:15;;;;;;;13.23;8.77;;;;;;;11.35;97.46;99806.97;5187913;22;20606;-83
2024/02/18 00:20:19;;;;;;;10.20;8.23;;;;;;;11.36;97.15;99802.59;5135219;23;20993;-84
2024/02/18 00:22:23;;;;;;;10.40;8.30;;;;;;;11.34;97.06;99810.50;5137499;23;20620;-83
2024/02/18 00:24:26;;;;;;;14.07;9.13;;;;;;;11.35;96.25;99812.19;5162821;23;20576;-83
2024/02/18 00:26:29;;;;;;;14.40;9.70;;;;;;;11.35;97.83;99809.59;5162236;23;21087;-83
2024/02/18 00:28:52;;;;;;;14.70;8.40;;;;;;;11.33;97.54;99805.34;5188899;22;20575;-83
2024/02/18 00:30:56;;;;;;;14.40;8.63;;;;;;;11.31;97.68;99805.41;5136738;23;20684;-83
2024/02/18 00:33:00;;;;;;;9.60;8.53;;;;;;;11.32;96.85;99808.84;5161766;23;21145;-83
2024/02/18 00:35:03;;;;;;;10.97;9.13;;;;;;;11.31;97.14;99801.94;5138307;23;20659;-83
2024/02/18 00:37:07;;;;;;;12.10;9.80;;;;;;;11.31;97.78;99802.78;5136084;23;20651;-83
2024/02/18 00:39:09;;;;;;;13.03;8.20;;;;;;;11.30;96.58;99801.09;5161687;23;20580;-83
2024/02/18 00:41:13;;;;;;;13.10;9.00;;;;;;;11.32;96.39;99801.03;5162992;23;21177;-83
2024/02/18 00:43:16;;;;;;;10.40;9.07;;;;;;;11.32;96.98;99798.41;5163217;23;20656;-84
2024/02/18 00:45:19;;;;;;;12.50;9.33;;;;;;;11.31;97.98;99801.94;5162524;23;20584;-83
2024/02/18 00:47:24;;;;;;;11.20;9.20;;;;;;;11.29;98.02;99795.97;5161316;23;20995;-87
2024/02/18 00:49:27;;;;;;;11.10;8.63;;;;;;;11.26;96.94;99796.09;5161830;23;20580;-86
2024/02/18 00:51:31;;;;;;;11.10;8.47;;;;;;;11.25;96.72;99790.94;5187010;22;20587;-86
2024/02/18 00:53:34;;;;;;;10.73;8.67;;;;;;;11.25;98.22;99797.00;5135394;23;21148;-86
2024/02/18 00:55:42;;;;;;;11.27;8.87;;;;;;;11.22;98.59;99788.47;5137440;23;20683;-85
2024/02/18 00:57:46;;;;;;;11.53;9.30;;;;;;;11.22;96.50;99793.69;5162190;23;20614;-86
2024/02/18 00:59:49;;;;;;;11.97;9.40;;;;;;;11.20;98.36;99791.13;5136990;23;20616;-86
2024/02/18 01:01:51;;;;;;;13.17;9.00;;;;;;;11.19;96.59;99796.44;5161793;23;20575;-86
2024/02/18 01:03:56;;;;;;;12.67;9.53;;;;;;;11.18;96.89;99792.94;5189221;22;20587;-86
2024/02/18 01:05:59;;;;;;;11.43;9.00;;;;;;;11.20;97.28;99798.09;5136742;23;20676;-86
2024/02/18 01:08:02;;;;;;;12.30;9.40;;;;;;;11.19;98.35;99801.66;5188247;22;20673;-85
2024/02/18 01:10:09;;;;;;;10.37;8.27;;;;;;;11.18;97.66;99797.31;5138060;23;20569;-86
2024/02/18 01:12:12;;;;;;;11.43;9.70;;;;;;;11.15;97.85;99800.06;5188173;22;20567;-86
2024/02/18 01:14:15;;;;;;;13.07;9.40;;;;;;;11.14;98.16;99794.00;5136951;23;20667;-86
2024/02/18 01:16:18;;;;;;;10.80;8.77;;;;;;;11.15;97.41;99794.84;5136712;23;20635;-86
2024/02/18 01:18:22;;;;;;;10.20;8.70;;;;;;;11.15;97.97;99800.06;5161822;23;20588;-86
2024/02/18 01:20:26;;;;;;;13.80;9.37;;;;;;;11.16;97.32;99805.22;5160986;23;20569;-86
2024/02/18 01:22:30;;;;;;;10.23;8.90;;;;;;;11.15;99.16;99800.91;5162168;23;20604;-86
2024/02/18 01:24:33;;;;;;;12.90;8.90;;;;;;;11.16;97.92;99797.41;5161996;23;20580;-86
2024/02/18 01:26:36;;;;;;;12.80;9.90;;;;;;;11.16;97.65;99794.78;5161584;23;20995;-86
2024/02/18 01:28:41;;;;;;;10.00;8.83;;;;;;;11.16;99.19;99799.16;5136379;23;20577;-86
2024/02/18 01:30:45;;;;;;;12.47;9.17;;;;;;;11.16;97.62;99800.00;5161214;23;20620;-86
2024/02/18 01:32:48;;;;;;;13.83;9.03;;;;;;;11.17;98.60;99788.66;5162175;23;20589;-86
2024/02/18 01:34:54;;;;;;;13.17;8.83;;;;;;;11.14;97.79;99793.16;5161990;23;20565;-86
2024/02/18 01:36:58;;;;;;;10.03;9.00;;;;;;;11.09;97.68;99779.44;5162172;23;20623;-86
2024/02/18 01:39:02;;;;;;;10.47;9.30;;;;;;;11.09;98.35;99792.50;5189557;22;20935;-86
2024/02/18 01:41:05;;;;;;;13.93;9.10;;;;;;;11.07;98.49;99782.13;5161561;23;20560;-86
2024/02/18 01:43:08;;;;;;;12.63;9.57;;;;;;;11.05;98.79;99780.47;5187656;22;20964;-86
2024/02/18 01:45:12;;;;;;;10.97;9.13;;;;;;;11.06;98.80;99774.34;5190703;22;21153;-86
2024/02/18 01:47:15;;;;;;;10.87;8.43;;;;;;;11.08;98.99;99769.91;5163897;23;20608;-86
2024/02/18 01:49:18;;;;;;;13.70;8.60;;;;;;;11.08;98.26;99777.75;5137948;23;20743;-87
2024/02/18 01:51:22;;;;;;;12.47;9.30;;;;;;;11.06;98.11;99774.34;5164557;23;21155;-86
2024/02/18 01:53:28;;;;;;;12.10;9.83;;;;;;;11.05;98.47;99770.91;5190781;22;20579;-86
2024/02/18 01:55:32;;;;;;;10.83;8.80;;;;;;;11.03;99.06;99769.28;5166011;23;20564;-87
2024/02/18 01:57:35;;;;;;;11.80;8.73;;;;;;;11.01;97.88;99768.50;5138783;23;20672;-84
2024/02/18 01:59:39;;;;;;;10.60;8.70;;;;;;;11.00;99.23;99769.41;5164523;23;20583;-83
2024/02/18 02:01:43;;;;;;;16.60;8.20;;;;;;;10.99;97.77;99772.91;5164197;23;20829;-83
2024/02/18 02:03:46;;;;;;;15.00;12.23;;;;;;;11.01;98.29;99771.09;5164368;23;20932;-84
2024/02/18 02:05:50;;;;;;;12.30;9.47;;;;;;;11.02;98.25;99771.03;5162919;23;20596;-83
2024/02/18 02:07:53;;;;;;;12.50;9.83;;;;;;;11.03;97.62;99770.09;5139628;23;20594;-83
2024/02/18 02:09:58;;;;;;;12.93;9.97;;;;;;;11.04;98.21;99776.19;5190647;22;20582;-83
2024/02/18 02:12:01;;;;;;;14.37;9.73;;;;;;;11.03;99.07;99770.09;5165217;23;20576;-83
2024/02/18 02:14:05;;;;;;;11.20;10.00;;;;;;;11.05;97.87;99764.81;5164725;23;20942;-83
2024/02/18 02:16:09;;;;;;;13.67;9.93;;;;;;;11.05;99.20;99770.91;5139389;23;20611;-83
2024/02/18 02:18:13;;;;;;;13.20;10.17;;;;;;;11.06;98.06;99772.59;5164603;23;20589;-83
2024/02/18 02:20:16;;;;;;;11.70;9.40;;;;;;;11.06;98.77;99766.53;5163782;23;20568;-83
2024/02/18 02:22:20;;;;;;;12.47;9.27;;;;;;;11.05;98.37;99763.06;5140570;23;20967;-83
2024/02/18 02:24:23;;;;;;;11.73;8.90;;;;;;;11.03;98.91;99764.88;5137733;23;21176;-83
2024/02/18 02:26:32;;;;;;;10.10;9.00;;;;;;;11.02;98.98;99762.34;5163207;23;20607;-83
2024/02/18 02:28:38;;;;;;;13.37;8.77;;;;;;;10.98;97.92;99759.03;5162488;23;20564;-83
2024/02/18 02:30:43;;;;;;;10.30;8.77;;;;;;;10.98;98.71;99758.19;5138243;23;20965;-83
2024/02/18 02:32:47;;;;;;;12.30;8.90;;;;;;;10.94;98.48;99749.63;5138505;23;20584;-83
2024/02/18 02:34:50;;;;;;;11.20;8.33;;;;;;;10.91;98.37;99744.53;5138570;23;20585;-83
2024/02/18 02:36:53;;;;;;;10.70;7.73;;;;;;;10.89;99.21;99746.38;5138234;23;20581;-83
2024/02/18 02:38:56;;;;;;;11.83;8.50;;;;;;;10.86;98.25;99749.13;5163487;23;20618;-83
2024/02/18 02:41:02;;;;;;;12.60;9.20;;;;;;;10.81;98.91;99743.25;5190728;22;20599;-83
2024/02/18 02:43:06;;;;;;;10.43;9.30;;;;;;;10.78;97.33;99745.16;5162480;23;20607;-83
2024/02/18 02:45:10;;;;;;;11.87;9.27;;;;;;;10.76;97.42;99739.13;5163158;23;20619;-83
2024/02/18 02:47:15;;;;;;;13.73;9.87;;;;;;;10.73;97.37;99727.97;5162685;23;21424;-83
2024/02/18 02:49:19;;;;;;;9.67;8.60;;;;;;;10.70;97.70;99723.72;5189773;22;20583;-84
2024/02/18 02:51:23;;;;;;;11.73;9.70;;;;;;;10.68;97.53;99725.56;5190034;22;20575;-83
2024/02/18 02:53:28;;;;;;;11.40;9.40;;;;;;;10.67;97.27;99733.47;5138371;23;20643;-83
2024/02/18 02:55:31;;;;;;;12.90;9.90;;;;;;;10.64;97.95;99738.81;5138804;23;20577;-83
2024/02/18 02:57:35;;;;;;;11.40;9.67;;;;;;;10.61;98.09;99741.53;5188641;22;20905;-83
2024/02/18 02:59:38;;;;;;;12.50;9.03;;;;;;;10.59;97.82;99739.00;5163340;23;21177;-84
2024/02/18 03:01:41;;;;;;;11.43;9.03;;;;;;;10.57;97.09;99719.97;5162973;23;20584;-83
2024/02/18 03:03:46;;;;;;;11.97;9.43;;;;;;;10.60;97.95;99743.31;5162057;23;20612;-83
2024/02/18 03:05:50;;;;;;;10.00;8.43;;;;;;;10.57;97.49;99738.22;5163081;23;20627;-83
2024/02/18 03:07:53;;;;;;;13.97;8.97;;;;;;;10.52;97.56;99734.09;5162148;23;20572;-86
2024/02/18 03:09:57;;;;;;;13.20;9.50;;;;;;;10.49;98.07;99732.50;5162100;23;20580;-86
2024/02/18 03:12:02;;;;;;;11.43;9.53;;;;;;;10.47;97.75;99733.47;5136491;23;20579;-86
2024/02/18 03:14:05;;;;;;;10.23;8.97;;;;;;;10.44;97.40;99730.97;5137488;23;21206;-86
2024/02/18 03:16:09;;;;;;;8.83;7.60;;;;;;;10.44;98.57;99736.19;5162192;23;20671;-86
2024/02/18 03:18:12;;;;;;;11.50;8.37;;;;;;;10.38;98.04;99732.06;5137713;23;20681;-86
2024/02/18 03:20:19;;;;;;;8.63;7.63;;;;;;;10.32;98.42;99731.47;5163283;23;21300;-85
2024/02/18 03:22:23;;;;;;;8.60;7.50;;;;;;;10.27;98.24;99728.22;5163450;23;20576;-86
2024/02/18 03:24:28;;;;;;;9.33;7.70;;;;;;;10.25;98.14;99732.63;5137954;23;21176;-86
2024/02/18 03:26:34;;;;;;;8.70;7.10;;;;;;;10.22;97.22;99737.13;5162915;23;20653;-86
2024/02/18 03:28:38;;;;;;;9.30;8.40;;;;;;;10.20;97.16;99731.13;5162825;23;20607;-86
2024/02/18 03:30:44;;;;;;;11.80;8.50;;;;;;;10.16;97.20;99721.72;5190095;22;20961;-86
2024/02/18 03:32:48;;;;;;;9.70;7.40;;;;;;;10.14;97.31;99721.78;5138229;23;20580;-86
2024/02/18 03:34:51;;;;;;;12.60;8.23;;;;;;;10.11;97.41;99721.91;5161657;22;20581;-86
2024/02/18 03:36:56;;;;;;;13.17;8.10;;;;;;;10.09;97.68;99722.91;5136369;23;21440;-86
2024/02/18 03:39:00;;;;;;;10.53;7.77;;;;;;;10.07;97.65;99729.91;5138049;23;20569;-86
2024/02/18 03:41:07;;;;;;;11.27;7.83;;;;;;;10.06;97.94;99717.81;5162452;23;20627;-86
2024/02/18 03:43:11;;;;;;;10.07;7.70;;;;;;;10.04;97.93;99720.50;5163255;23;20635;-86
2024/02/18 03:45:15;;;;;;;9.73;7.60;;;;;;;10.01;97.61;99712.78;5137399;23;20658;-86
2024/02/18 03:47:23;;;;;;;9.97;7.63;;;;;;;10.00;97.12;99715.47;5162413;23;20917;-86
2024/02/18 03:49:27;;;;;;;9.40;7.77;;;;;;;9.99;97.64;99717.19;5162655;23;20572;-86
2024/02/18 03:51:30;;;;;;;11.50;7.50;;;;;;;10.00;97.67;99718.06;5163236;23;20584;-86
2024/02/18 03:53:36;;;;;;;12.00;7.73;;;;;;;9.98;97.35;99714.66;5162238;22;20634;-86
2024/02/18 03:55:40;;;;;;;8.97;7.30;;;;;;;9.96;97.79;99717.31;5138001;23;20688;-86
2024/02/18 03:57:45;;;;;;;9.27;6.97;;;;;;;9.94;97.65;99719.16;5137317;23;21044;-86
2024/02/18 03:59:48;;;;;;;10.50;7.20;;;;;;;9.89;97.40;99713.25;5189372;22;20690;-86
2024/02/18 04:01:52;;;;;;;9.87;7.23;;;;;;;9.84;97.08;99715.16;5189556;22;20571;-86
2024/02/18 04:03:56;;;;;;;8.83;7.00;;;;;;;9.81;96.63;99717.06;5162950;23;21014;-86
2024/02/18 04:05:59;;;;;;;10.87;8.13;;;;;;;9.77;96.20;99714.63;5135433;23;20713;-86
2024/02/18 04:08:03;;;;;;;9.27;7.47;;;;;;;9.73;96.01;99710.47;5161750;23;20614;-86
2024/02/18 04:10:10;;;;;;;10.73;6.70;;;;;;;9.69;95.57;99706.28;5161730;22;20576;-86
2024/02/18 04:12:15;;;;;;;8.07;7.00;;;;;;;9.68;96.49;99715.84;5188994;22;20655;-85
2024/02/18 04:14:19;;;;;;;17.60;8.10;;;;;;;9.66;96.56;99714.19;5162381;23;20576;-86
2024/02/18 04:16:22;;;;;;;17.23;7.80;;;;;;;9.60;97.04;99710.06;5162354;23;20630;-86
2024/02/18 04:18:26;;;;;;;21.47;9.00;;;;;;;9.57;97.18;99710.19;5161294;23;20576;-86
2024/02/18 04:20:30;;;;;;;19.17;7.80;;;;;;;9.55;97.03;99714.63;5190386;22;20583;-86
2024/02/18 04:22:34;;;;;;;17.33;7.87;;;;;;;9.50;96.92;99707.88;5163350;22;20576;-86
2024/02/18 04:24:38;;;;;;;18.60;8.20;;;;;;;9.47;96.67;99705.38;5162807;23;20621;-86
2024/02/18 04:26:45;;;;;;;19.17;8.93;;;;;;;9.41;96.68;99708.22;5187565;22;20593;-87
2024/02/18 04:28:48;;;;;;;18.00;8.10;;;;;;;9.36;96.58;99704.94;5137029;23;20899;-87
2024/02/18 04:30:51;;;;;;;10.97;7.93;;;;;;;9.34;96.77;99704.16;5161207;23;20576;-87
2024/02/18 04:32:55;;;;;;;13.20;8.10;;;;;;;9.31;96.76;99704.28;5163020;23;20583;-86
2024/02/18 04:34:58;;;;;;;13.53;7.60;;;;;;;9.33;97.67;99712.88;5136707;23;20281;-86
2024/02/18 04:37:02;;;;;;;12.47;8.30;;;;;;;9.31;97.06;99712.09;5161638;23;20573;-86
2024/02/18 04:39:06;;;;;;;8.63;6.47;;;;;;;9.30;96.68;99710.38;5162558;23;20626;-86
2024/02/18 04:41:10;;;;;;;13.00;6.75;;;;;;;9.31;97.51;99712.09;5189447;22;20637;-85
2024/02/18 04:43:14;;;;;;;25.40;7.07;;;;;;;9.33;98.42;99705.06;5188458;22;20204;-86
2024/02/18 04:45:17;;;;;;;15.27;8.00;;;;;;;9.33;98.10;99707.66;5189401;22;20614;-86
2024/02/18 04:47:22;;;;;;;31.80;7.90;;;;;;;9.32;97.74;99705.13;5136878;23;20569;-86
2024/02/18 04:49:25;;;;;;;10.77;7.00;;;;;;;9.35;98.91;99707.59;5189272;22;20208;-86
2024/02/18 04:51:29;;;;;;;17.20;8.00;;;;;;;9.28;97.50;99700.97;5137952;23;20584;-86
2024/02/18 04:53:32;;;;;;;23.83;9.67;;;;;;;9.17;95.73;99690.06;5162424;23;20580;-85
2024/02/18 04:55:36;;;;;;;17.48;8.55;;;;;;;9.06;95.99;99693.06;5137648;23;20585;-86
2024/02/18 04:57:39;;;;;;;13.13;8.20;;;;;;;9.01;97.06;99694.16;5189058;22;20169;-86
2024/02/18 04:59:44;;;;;;;16.93;7.60;;;;;;;8.95;96.74;99690.00;5161667;23;20647;-86
2024/02/18 05:01:50;;;;;;;15.45;7.78;;;;;;;8.89;97.90;99684.19;5136826;23;20939;-86
2024/02/18 05:03:53;;;;;;;15.57;7.80;;;;;;;8.85;97.63;99687.81;5162776;23;20186;-86
2024/02/18 05:05:57;;;;;;;14.47;8.03;;;;;;;8.79;97.51;99690.63;5188553;22;20634;-86
2024/02/18 05:08:00;;;;;;;16.70;7.60;;;;;;;8.77;98.42;99689.00;5161518;23;21291;-86
2024/02/18 05:10:04;;;;;;;22.52;8.35;;;;;;;8.77;97.80;99689.00;5136647;23;20615;-86
2024/02/18 05:12:08;;;;;;;12.48;7.28;;;;;;;8.74;98.63;99689.09;5162127;23;20205;-86
2024/02/18 05:14:11;;;;;;;16.27;7.53;;;;;;;8.72;98.45;99690.88;5159359;23;20222;-86
2024/02/18 05:16:15;;;;;;;14.07;5.70;;;;;;;8.68;99.21;99686.72;5161911;23;20240;-86
2024/02/18 05:18:19;;;;;;;13.45;6.47;;;;;;;8.64;99.15;99693.75;5161604;23;20683;-86
2024/02/18 05:20:23;;;;;;;16.15;6.80;;;;;;;8.63;100.00;99689.47;5137538;23;20541;-86
2024/02/18 05:22:27;;;;;;;18.03;6.60;;;;;;;8.63;100.00;99678.22;5135098;23;20225;-86
2024/02/18 05:24:29;;;;;;;23.27;8.88;;;;;;;8.61;100.00;99683.47;5162183;23;20583;-86
2024/02/18 05:26:32;;;;;;;21.67;8.20;;;;;;;8.57;100.00;99673.25;5160358;23;20556;-86
2024/02/18 05:28:35;;;;;;;16.75;6.72;;;;;;;8.60;100.00;99683.53;5135648;23;20202;-86
2024/02/18 05:30:39;;;;;;;13.95;6.82;;;;;;;8.61;100.00;99683.47;5188524;22;20177;-85
2024/02/18 05:32:43;;;;;;;12.95;6.68;;;;;;;8.63;100.00;99684.28;5162370;23;20608;-86
2024/02/18 05:34:46;;;;;;;11.25;7.20;;;;;;;8.63;100.00;99686.00;5186887;22;20181;-86
2024/02/18 05:36:50;;;;;;;14.90;6.50;;;;;;;8.62;100.00;99679.13;5160262;23;20182;-86
2024/02/18 05:38:53;;;;;;;9.63;6.20;;;;;;;8.58;100.00;99682.72;5161800;23;20657;-86
2024/02/18 05:40:56;;;;;;;12.63;6.73;;;;;;;8.53;100.00;99674.25;5162398;23;20181;-86
2024/02/18 05:43:00;;;;;;;8.77;6.18;;;;;;;8.46;99.37;99672.75;5162091;23;21130;-86
2024/02/18 05:45:02;;;;;;;8.80;7.03;;;;;;;8.40;99.88;99672.97;5160981;23;20304;-85
2024/02/18 05:47:06;;;;;;;10.27;6.63;;;;;;;8.31;100.00;99668.09;5137064;23;20182;-86
2024/02/18 05:49:11;;;;;;;13.57;6.95;;;;;;;8.29;99.54;99671.66;5161058;23;20537;-86
2024/02/18 05:51:15;;;;;;;13.73;6.47;;;;;;;8.28;98.71;99659.56;5137041;23;20265;-86
2024/02/18 05:53:18;;;;;;;8.23;6.33;;;;;;;8.28;99.62;99657.78;5162144;23;20556;-86
2024/02/18 05:55:21;;;;;;;10.20;6.60;;;;;;;8.29;99.95;99661.25;5136469;23;20573;-86
2024/02/18 05:57:25;;;;;;;11.07;6.68;;;;;;;8.34;99.12;99664.53;5135555;23;20617;-86
2024/02/18 05:59:28;;;;;;;11.18;6.85;;;;;;;8.36;98.39;99660.13;5135839;23;20635;-86
2024/02/18 06:01:32;;;;;;;11.00;6.40;;;;;;;8.32;98.74;99658.56;5137305;23;20186;-86
2024/02/18 06:03:35;;;;;;;13.00;7.80;;;;;;;8.28;98.39;99657.78;5135301;23;20171;-86
2024/02/18 06:05:38;;;;;;;9.80;6.70;;;;;;;8.29;99.05;99662.09;5135910;23;20210;-86
2024/02/18 06:07:46;;;;;;;9.60;7.30;;;;;;;8.33;98.02;99660.22;5161598;23;20676;-86
2024/02/18 06:09:49;;;;;;;8.38;6.50;;;;;;;8.28;98.10;99657.78;5161767;23;20173;-86
2024/02/18 06:11:53;;;;;;;18.27;6.57;;;;;;;8.29;98.75;99656.91;5136963;23;20204;-86
2024/02/18 06:13:55;;;;;;;10.65;6.63;;;;;;;8.27;98.71;99661.31;5161247;23;20628;-86
2024/02/18 06:15:59;;;;;;;11.73;6.90;;;;;;;8.27;97.68;99648.31;5135134;23;20181;-86
2024/02/18 06:18:02;;;;;;;13.32;7.82;;;;;;;8.27;98.17;99650.91;5160716;23;20506;-86
2024/02/18 06:20:08;;;;;;;13.23;7.43;;;;;;;8.26;98.66;99643.19;5136456;23;20179;-85
2024/02/18 06:22:15;;;;;;;9.37;7.00;;;;;;;8.28;98.70;99641.34;5162742;23;20575;-86
2024/02/18 06:24:18;;;;;;;8.38;6.70;;;;;;;8.30;98.42;99643.00;5187645;22;20575;-86
2024/02/18 06:26:21;;;;;;;10.77;7.05;;;;;;;8.25;97.42;99647.50;5136872;23;20198;-87
2024/02/18 06:28:31;;;;;;;45.85;8.45;;;;;;;8.21;96.89;99640.72;5136832;23;20185;-86
2024/02/18 06:30:35;;;;;;;14.77;7.32;;;;;;;8.14;97.17;99644.44;5162312;23;20173;-86
2024/02/18 06:32:39;;;;;;;20.90;8.30;;;;;;;8.09;96.54;99641.09;5138654;23;20178;-86
2024/02/18 06:34:42;;;;;;;24.85;8.02;;;;;;;8.04;97.19;99636.97;5162938;23;20256;-86
2024/02/18 06:36:45;;;;;;;28.13;8.47;;;;;;;8.01;97.51;99635.34;5137771;23;20619;-85
2024/02/18 06:38:50;;;;;;;38.80;9.18;;;;;;;7.96;97.04;99632.94;5138405;23;20580;-86
2024/02/18 06:40:53;;;;;;;39.33;8.55;;;;;;;7.95;97.46;99632.06;5137736;23;20271;-86
2024/02/18 06:42:57;;;;;;;34.47;9.00;;;;;;;7.96;96.63;99633.78;5139201;23;20181;-86
2024/02/18 06:45:00;;;;;;;45.08;9.82;;;;;;;7.95;96.58;99626.88;5138081;23;20181;-85
2024/02/18 06:47:04;;;;;;;39.17;7.72;;;;;;;7.96;98.25;99632.94;5137643;23;20285;-85
2024/02/18 06:49:06;;;;;;;36.45;8.32;;;;;;;7.95;97.92;99639.03;5139176;23;20228;-86
2024/02/18 06:51:09;;;;;;;32.97;8.57;;;;;;;7.96;98.31;99634.63;5137689;23;20709;-86
2024/02/18 06:53:12;;;;;;;28.42;7.70;;;;;;;7.98;99.58;99642.34;5137989;23;20188;-86
2024/02/18 06:55:17;;;;;;;23.27;6.80;;;;;;;7.99;98.46;99636.28;5137394;23;20181;-85
2024/02/18 06:57:20;;;;;;;31.33;7.85;;;;;;;8.00;98.92;99640.56;5188879;22;20185;-86
2024/02/18 06:59:24;;;;;;;21.30;7.60;;;;;;;8.00;100.00;99637.97;5163613;23;20278;-86
2024/02/18 07:01:27;;;;;;;23.75;6.65;;;;;;;8.01;100.00;99629.25;5137975;23;20217;-86
2024/02/18 07:03:30;;;;;;;14.20;7.38;;;;;;;8.05;99.84;99631.72;5163466;23;20855;-86
2024/02/18 07:05:34;;;;;;;18.70;7.43;;;;;;;8.09;99.37;99630.72;5163717;23;20297;-86
2024/02/18 07:07:37;;;;;;;13.85;6.93;;;;;;;8.11;100.00;99631.53;5137954;23;20181;-88
2024/02/18 07:09:41;;;;;;;17.52;7.43;;;;;;;8.19;100.00;99636.47;5160750;23;20197;-86
2024/02/18 07:11:46;;;;;;;21.42;7.63;;;;;;;8.27;99.00;99637.94;5163219;23;20602;-86
2024/02/18 07:13:49;;;;;;;15.93;7.57;;;;;;;8.29;100.00;99628.31;5162787;23;20182;-86
2024/02/18 07:15:52;;;;;;;19.02;7.75;;;;;;;8.34;99.21;99631.59;5162810;23;20180;-86
2024/02/18 07:17:56;;;;;;;26.52;9.40;;;;;;;8.40;99.31;99636.56;5137682;23;20228;-86
2024/02/18 07:20:00;;;;;;;23.23;8.35;;;;;;;8.42;99.74;99640.00;5138456;23;20181;-86
2024/02/18 07:22:04;;;;;;;32.65;8.38;;;;;;;8.48;99.46;99644.97;5189409;22;20177;-86
2024/02/18 07:24:08;;;;;;;18.05;8.30;;;;;;;8.53;100.00;99638.69;5138527;23;20593;-88
2024/02/18 07:26:11;;;;;;;22.85;8.85;;;;;;;8.56;100.00;99640.34;5138332;23;20280;-86
2024/02/18 07:28:16;;;;;;;12.40;8.23;;;;;;;8.57;100.00;99642.06;5162068;23;20637;-86
2024/02/18 07:30:20;;;;;;;22.08;8.90;;;;;;;8.61;100.00;99638.41;5163596;23;20181;-86
2024/02/18 07:32:24;;;;;;;23.30;10.63;;;;;;;8.66;100.00;99650.38;5189761;22;20180;-86
2024/02/18 07:34:27;;;;;;;35.17;9.15;;;;;;;8.69;100.00;99645.06;5189688;22;20177;-86
2024/02/18 07:36:30;;;;;;;24.30;9.73;;;;;;;8.73;100.00;99637.97;5137319;23;20182;-87
2024/02/18 07:38:33;;;;;;;19.25;9.18;;;;;;;8.80;100.00;99642.06;5163040;23;20624;-86
2024/02/18 07:40:36;;;;;;;26.45;9.45;;;;;;;8.85;100.00;99640.13;5134856;23;20196;-86
2024/02/18 07:42:43;;;;;;;21.65;8.18;;;;;;;8.88;100.00;99646.06;5135513;23;20444;-86
2024/02/18 07:44:47;;;;;;;12.20;8.70;;;;;;;8.90;100.00;99633.88;5160390;23;20196;-85
2024/02/18 07:46:54;;;;;;;19.98;8.13;;;;;;;8.93;100.00;99631.16;5159783;23;20208;-88
2024/02/18 07:48:57;;;;;;;17.52;7.88;;;;;;;8.95;99.91;99632.78;5190291;22;20250;-85
2024/02/18 07:51:00;;;;;;;17.88;8.30;;;;;;;9.02;100.00;99630.78;5163799;23;20174;-90
2024/02/18 07:53:04;;;;;;;20.55;7.55;;;;;;;9.08;99.91;99639.22;5137951;23;20174;-86
2024/02/18 07:55:08;;;;;;;24.40;7.93;;;;;;;9.12;99.76;99642.56;5139503;23;20196;-86
2024/02/18 07:57:11;;;;;;;31.30;8.60;;;;;;;9.19;99.89;99642.28;5191218;22;20538;-86
2024/02/18 07:59:16;;;;;;;25.27;9.60;;;;;;;9.26;100.00;99643.75;5164185;23;20625;-86
2024/02/18 08:01:21;;;;;;;19.90;9.87;;;;;;;9.35;100.00;99650.34;5139805;23;20178;-86
2024/02/18 08:03:24;;;;;;;33.50;9.93;;;;;;;9.38;99.60;99654.53;5137839;23;20949;-86
2024/02/18 08:05:28;;;;;;;25.17;9.10;;;;;;;9.40;99.95;99655.31;5164168;23;20607;-86
2024/02/18 08:07:31;;;;;;;27.88;8.75;;;;;;;9.45;99.62;99647.31;5161166;23;20216;-86
2024/02/18 08:09:35;;;;;;;24.20;9.20;;;;;;;9.54;100.00;99645.19;5138741;23;20660;-87
2024/02/18 08:11:38;;;;;;;25.13;10.48;;;;;;;9.60;99.67;99644.94;5137183;23;21021;-86
2024/02/18 08:13:42;;;;;;;28.05;10.32;;;;;;;9.69;100.00;99659.38;5162698;23;20727;-86
2024/02/18 08:15:45;;;;;;;56.25;10.38;;;;;;;9.70;99.65;99650.66;5163219;23;20754;-87
2024/02/18 08:17:50;;;;;;;35.92;10.05;;;;;;;9.73;99.38;99658.34;5161316;23;20180;-85
2024/02/18 08:19:53;;;;;;;21.50;9.77;;;;;;;9.78;99.90;99653.81;5136358;23;20185;-87
2024/02/18 08:21:57;;;;;;;19.80;9.83;;;;;;;9.83;99.41;99659.66;5162514;23;20580;-86
2024/02/18 08:24:01;;;;;;;35.00;10.47;;;;;;;9.84;99.65;99651.78;5138691;23;21190;-86
2024/02/18 08:26:05;;;;;;;25.30;9.90;;;;;;;9.87;98.93;99649.91;5137184;23;20585;-87
2024/02/18 08:28:08;;;;;;;28.73;10.13;;;;;;;9.87;99.70;99643.84;5162977;23;20604;-86
2024/02/18 08:30:13;;;;;;;29.80;10.07;;;;;;;9.91;100.00;99646.28;5162878;23;20655;-86
2024/02/18 08:32:17;;;;;;;16.23;10.23;;;;;;;9.97;100.00;99646.06;5138278;22;20584;-86
2024/02/18 08:34:24;;;;;;;27.17;11.10;;;;;;;10.00;99.69;99638.09;5162604;23;20177;-86
2024/02/18 08:36:28;;;;;;;24.52;11.30;;;;;;;9.99;99.80;99628.59;5188428;22;20570;-86
2024/02/18 08:38:31;;;;;;;21.27;11.67;;;;;;;9.98;99.60;99636.47;5132952;23;20200;-89
2024/02/18 08:40:34;;;;;;;19.80;13.20;;;;;;;10.03;99.57;99630.16;5161760;23;21421;-86
2024/02/18 08:42:38;;;;;;;21.90;12.23;;;;;;;10.13;99.31;99623.66;5163370;23;20574;-85
2024/02/18 08:44:41;;;;;;;18.23;12.13;;;;;;;10.23;100.00;99622.34;5162095;23;20184;-85
2024/02/18 08:46:47;;;;;;;17.17;12.03;;;;;;;10.36;100.00;99633.97;5159817;23;21106;-88
2024/02/18 08:48:51;;;;;;;20.93;11.70;;;;;;;10.61;100.00;99631.97;5160683;23;20576;-88
2024/02/18 08:50:56;;;;;;;17.75;10.43;;;;;;;10.78;100.00;99630.31;5136808;23;20591;-87
2024/02/18 08:52:59;;;;;;;15.20;11.07;;;;;;;10.95;100.00;99639.09;5184228;22;20176;-87
2024/02/18 08:55:02;;;;;;;17.63;12.60;;;;;;;11.05;100.00;99636.91;5187179;22;20583;-87
2024/02/18 08:57:06;;;;;;;14.73;11.30;;;;;;;11.12;100.00;99643.53;5161727;23;20579;-87
2024/02/18 08:59:10;;;;;;;14.70;11.37;;;;;;;11.21;97.45;99637.91;5136081;23;20577;-87
2024/02/18 09:01:14;;;;;;;13.40;10.83;;;;;;;11.26;97.04;99639.41;5136284;23;20568;-88
2024/02/18 09:03:16;;;;;;;14.83;10.93;;;;;;;11.23;97.92;99629.09;5162859;23;21141;-90
2024/02/18 09:05:19;;;;;;;14.80;10.90;;;;;;;11.20;96.61;99617.91;5161807;23;20572;-88
2024/02/18 09:07:24;;;;;;;14.90;11.70;;;;;;;11.15;96.94;99623.34;5162064;23;20708;-88
2024/02/18 09:09:28;;;;;;;14.40;10.77;;;;;;;11.05;96.21;99611.66;5138155;23;20597;-88
2024/02/18 09:11:31;;;;;;;15.20;11.20;;;;;;;11.10;94.91;99614.88;5163701;23;20592;-88
2024/02/18 09:13:34;;;;;;;16.63;12.53;;;;;;;11.22;95.70;99609.09;5162021;23;20572;-89
2024/02/18 09:15:38;;;;;;;16.70;12.50;;;;;;;11.43;94.52;99610.72;5135075;23;20641;-83
2024/02/18 09:17:40;;;;;;;14.43;12.07;;;;;;;11.62;95.86;99604.56;5189494;22;20571;-87
2024/02/18 09:19:46;;;;;;;19.03;13.40;;;;;;;11.83;94.92;99596.53;5134110;23;20585;-87
2024/02/18 09:21:49;;;;;;;20.40;12.97;;;;;;;12.02;93.48;99594.66;5162603;23;21263;-88
2024/02/18 09:23:53;;;;;;;17.50;13.57;;;;;;;12.20;93.70;99598.97;5163157;23;20585;-88
2024/02/18 09:25:56;;;;;;;15.97;12.87;;;;;;;12.34;92.61;99586.03;5160963;23;20588;-89
2024/02/18 09:28:01;;;;;;;19.73;13.43;;;;;;;12.44;92.07;99582.03;5162273;23;21349;-89
2024/02/18 09:30:04;;;;;;;18.40;13.93;;;;;;;12.60;93.24;99589.00;5138312;23;20587;-88
2024/02/18 09:32:08;;;;;;;17.07;13.07;;;;;;;12.74;92.16;99599.59;5163714;23;20588;-87
2024/02/18 09:34:12;;;;;;;17.40;13.33;;;;;;;12.81;88.89;99596.56;5137657;23;20589;-89
2024/02/18 09:36:16;;;;;;;15.80;12.20;;;;;;;12.83;87.97;99591.28;5189075;22;21128;-88
2024/02/18 09:38:19;;;;;;;17.53;13.70;;;;;;;12.94;87.26;99592.38;5162288;23;20580;-87